Terminal Aerodrome Forecast
Issued by NWS Portland, ME

Home | Current Version | Previous Version | Text Only | Print | Product List | Glossary On
Versions: 1 2 3 4 5 6 7 8 9 10 11 12 13 14 15 16 17 18 19 20 21 22 23
000
FTUS41 KGYX 292320
TAFCON
TAF
KCON 292320Z 3000/3024 15004KT P6SM OVC250
     FM300500 VRB03KT 3SM -SN BR OVC025
     FM300700 07004KT 1 1/2SM -SN BR OVC007
     FM301200 12004KT 1/2SM SN FG OVC004
     FM301900 32008KT 2SM -SN BR OVC007=

USA.gov is the U.S. government's official web portal to all federal, state and local government web resources and services.